Time;durP1;ratioP1;P1;durP2;ratioP2;P2;SDS_P1;SDS_P2;PMS_P1;PMS_P2;Temp;Humidity;BMP_temperature;BMP_pressure;BME280_temperature;BME280_humidity;BME280_pressure;Samples;Min_cycle;Max_cycle;Signal;HPM_P1;HPM_P2
2024/01/17 00:00:58;;;;;;;5.03;2.40;;;;;-5.30;92480.00;;;;7414070;19;20147;-78
2024/01/17 00:03:33;;;;;;;4.23;2.40;;;;;-5.20;92484.00;;;;7412125;19;20138;-79
2024/01/17 00:06:07;;;;;;;5.20;2.80;;;;;-4.60;92492.00;;;;7411403;19;20674;-77
2024/01/17 00:08:35;;;;;;;6.00;2.60;;;;;-4.30;92484.00;;;;7409395;19;20625;-76
2024/01/17 00:11:12;;;;;;;3.43;2.13;;;;;-4.50;92470.00;;;;7412261;19;20137;-78
2024/01/17 00:13:40;;;;;;;4.20;2.20;;;;;-4.60;92462.00;;;;7413630;19;20179;-77
2024/01/17 00:16:23;;;;;;;4.20;2.07;;;;;-4.60;92447.00;;;;7414490;19;20199;-76
2024/01/17 00:18:52;;;;;;;3.23;2.00;;;;;-4.60;92434.00;;;;7414238;19;20204;-76
2024/01/17 00:21:28;;;;;;;4.23;2.47;;;;;-4.80;92450.00;;;;7410030;19;20145;-76
2024/01/17 00:23:55;;;;;;;2.53;1.83;;;;;-5.00;92447.00;;;;7411774;19;20134;-77
2024/01/17 00:26:30;;;;;;;3.50;2.10;;;;;-4.90;92448.00;;;;7411286;19;20158;-76
2024/01/17 00:28:57;;;;;;;3.27;1.83;;;;;-4.60;92452.00;;;;7411993;19;20150;-76
2024/01/17 00:31:32;;;;;;;3.80;1.93;;;;;-4.70;92448.00;;;;7412555;19;20167;-76
2024/01/17 00:34:07;;;;;;;2.17;1.63;;;;;-4.70;92439.00;;;;7406305;19;20144;-77
2024/01/17 00:36:43;;;;;;;2.97;1.80;;;;;-4.60;92430.00;;;;7408339;19;20146;-77
2024/01/17 00:39:22;;;;;;;4.70;1.83;;;;;-4.60;92415.00;;;;7404643;19;20844;-77
2024/01/17 00:42:06;;;;;;;4.53;2.10;;;;;-4.60;92417.00;;;;7401934;19;20140;-77
2024/01/17 00:44:42;;;;;;;3.10;2.10;;;;;-4.70;92416.00;;;;7404212;19;20614;-77
2024/01/17 00:47:10;;;;;;;2.50;1.53;;;;;-4.60;92415.00;;;;7402756;19;20145;-77
2024/01/17 00:49:39;;;;;;;2.37;1.67;;;;;-4.50;92422.00;;;;7406869;19;20150;-78
2024/01/17 00:52:14;;;;;;;4.40;1.90;;;;;-4.40;92434.00;;;;7405048;19;20143;-78
2024/01/17 00:54:42;;;;;;;2.87;1.63;;;;;-4.60;92430.00;;;;7407272;19;20588;-78
2024/01/17 00:57:16;;;;;;;3.10;2.00;;;;;-4.50;92437.00;;;;7403850;19;20150;-77
2024/01/17 00:59:51;;;;;;;3.57;1.97;;;;;-4.20;92437.00;;;;7404754;19;20237;-77
2024/01/17 01:02:19;;;;;;;2.70;1.53;;;;;-4.00;92424.00;;;;7400759;19;20152;-77
2024/01/17 01:04:56;;;;;;;6.10;1.80;;;;;-4.10;92421.00;;;;7402561;19;20148;-76
2024/01/17 01:07:30;;;;;;;3.70;1.90;;;;;-4.20;92409.00;;;;7403669;19;20139;-77
2024/01/17 01:09:58;;;;;;;1.87;1.40;;;;;-4.10;92415.00;;;;7399685;19;20129;-77
2024/01/17 01:12:32;;;;;;;2.50;1.30;;;;;-4.10;92413.00;;;;7404450;19;20157;-78
2024/01/17 01:15:08;;;;;;;1.70;1.30;;;;;-4.00;92407.00;;;;7403390;19;20148;-77
2024/01/17 01:17:41;;;;;;;2.67;1.50;;;;;-4.00;92409.00;;;;7403251;19;20516;-80
2024/01/17 01:20:16;;;;;;;2.30;1.50;;;;;-4.10;92405.00;;;;7404319;19;20152;-80
2024/01/17 01:22:51;;;;;;;1.90;1.37;;;;;-3.70;92400.00;;;;7400975;19;20151;-80
2024/01/17 01:25:26;;;;;;;1.37;1.10;;;;;-3.80;92398.00;;;;7403838;19;20613;-81
2024/01/17 01:27:54;;;;;;;1.30;1.20;;;;;-3.80;92397.00;;;;7405832;19;20169;-82
2024/01/17 01:30:29;;;;;;;1.80;1.30;;;;;-3.70;92387.00;;;;7405704;19;20124;-79
2024/01/17 01:33:07;;;;;;;2.43;1.50;;;;;-3.70;92395.00;;;;7404718;19;20531;-79
2024/01/17 01:35:35;;;;;;;1.60;1.30;;;;;-3.50;92376.00;;;;7402472;19;20215;-80
2024/01/17 01:38:10;;;;;;;2.00;1.30;;;;;-3.50;92384.00;;;;7403217;19;20149;-80
2024/01/17 01:40:50;;;;;;;3.37;1.73;;;;;-3.70;92388.00;;;;7403861;19;20212;-81
2024/01/17 01:43:26;;;;;;;2.50;1.60;;;;;-3.60;92384.00;;;;7402317;19;20164;-81
2024/01/17 01:46:23;;;;;;;2.07;1.40;;;;;-3.20;92388.00;;;;7402763;19;20148;-80
2024/01/17 01:49:00;;;;;;;1.60;1.40;;;;;-2.80;92376.00;;;;7404455;19;20144;-80
2024/01/17 01:51:35;;;;;;;1.70;1.30;;;;;-2.50;92373.00;;;;7402714;19;20133;-80
2024/01/17 01:54:10;;;;;;;3.87;1.80;;;;;-2.70;92371.00;;;;7401511;19;20144;-81
2024/01/17 01:56:40;;;;;;;2.00;1.40;;;;;-2.60;92362.00;;;;7403122;19;20152;-81
2024/01/17 01:59:19;;;;;;;1.93;1.00;;;;;-2.40;92356.00;;;;7401084;19;20208;-81
2024/01/17 02:01:55;;;;;;;2.03;1.33;;;;;-2.50;92346.00;;;;7400809;19;20219;-81
2024/01/17 02:04:31;;;;;;;2.30;1.40;;;;;-2.50;92348.00;;;;7403151;19;20132;-81
2024/01/17 02:07:03;;;;;;;2.50;1.43;;;;;-2.60;92348.00;;;;7403741;19;20149;-82
2024/01/17 02:09:38;;;;;;;3.17;1.00;;;;;-2.70;92335.00;;;;7405910;19;20136;-81
2024/01/17 02:12:13;;;;;;;2.10;1.10;;;;;-2.60;92350.00;;;;7401730;19;20168;-81
2024/01/17 02:14:47;;;;;;;2.30;1.33;;;;;-2.80;92346.00;;;;7402377;19;20126;-82
2024/01/17 02:17:15;;;;;;;2.07;1.20;;;;;-2.80;92343.00;;;;7401551;19;20609;-81
2024/01/17 02:19:50;;;;;;;3.30;1.30;;;;;-2.80;92335.00;;;;7402703;19;20136;-81
2024/01/17 02:22:18;;;;;;;1.30;1.03;;;;;-2.80;92328.00;;;;7400895;19;20153;-81
2024/01/17 02:24:53;;;;;;;1.93;1.37;;;;;-3.20;92326.00;;;;7402872;19;20136;-80
2024/01/17 02:27:23;;;;;;;3.23;2.00;;;;;-3.20;92322.00;;;;7403008;19;20148;-77
2024/01/17 02:29:58;;;;;;;3.93;2.07;;;;;-3.00;92321.00;;;;7401246;19;20600;-77
2024/01/17 02:32:27;;;;;;;2.37;1.40;;;;;-2.80;92327.00;;;;7401525;19;20137;-79
2024/01/17 02:35:02;;;;;;;2.60;1.60;;;;;-2.70;92335.00;;;;7400832;19;20145;-78
2024/01/17 02:37:30;;;;;;;3.80;1.50;;;;;-2.70;92320.00;;;;7400606;19;20160;-78
2024/01/17 02:40:05;;;;;;;1.80;1.43;;;;;-2.30;92310.00;;;;7402078;19;20141;-77
2024/01/17 02:42:45;;;;;;;2.30;1.70;;;;;-2.30;92310.00;;;;7400013;19;20138;-77
2024/01/17 02:45:14;;;;;;;3.47;2.10;;;;;-2.00;92308.00;;;;7404145;19;20183;-77
2024/01/17 02:47:48;;;;;;;2.10;1.83;;;;;-1.90;92309.00;;;;7401225;19;20156;-77
2024/01/17 02:50:23;;;;;;;4.80;2.07;;;;;-2.30;92297.00;;;;7401441;19;20148;-78
2024/01/17 02:52:52;;;;;;;2.93;2.00;;;;;-2.00;92293.00;;;;7399942;19;20134;-77
2024/01/17 02:55:27;;;;;;;3.10;2.17;;;;;-1.80;92285.00;;;;7401693;19;20134;-77
2024/01/17 02:58:01;;;;;;;3.23;2.20;;;;;-1.60;92283.00;;;;7399155;19;20132;-77
2024/01/17 03:00:40;;;;;;;3.00;2.10;;;;;-1.80;92287.00;;;;7401560;19;20161;-76
2024/01/17 03:03:10;;;;;;;3.23;2.20;;;;;-1.70;92283.00;;;;7402609;19;20133;-78
2024/01/17 03:05:45;;;;;;;3.43;2.33;;;;;-1.70;92285.00;;;;7400062;19;20135;-77
2024/01/17 03:08:20;;;;;;;3.30;2.47;;;;;-1.70;92286.00;;;;7400772;19;20148;-78
2024/01/17 03:10:56;;;;;;;5.23;2.37;;;;;-1.60;92279.00;;;;7399048;19;20144;-77
2024/01/17 03:13:24;;;;;;;3.80;2.43;;;;;-1.50;92286.00;;;;7398266;19;20569;-77
2024/01/17 03:15:58;;;;;;;3.90;2.53;;;;;-1.50;92278.00;;;;7399001;19;20644;-77
2024/01/17 03:18:31;;;;;;;3.53;2.50;;;;;-1.80;92289.00;;;;7400429;19;20133;-77
2024/01/17 03:21:04;;;;;;;4.70;2.50;;;;;-1.60;92279.00;;;;7400152;19;20155;-77
2024/01/17 03:23:40;;;;;;;5.27;2.33;;;;;-1.70;92276.00;;;;7397888;19;20137;-78
2024/01/17 03:26:09;;;;;;;3.20;2.40;;;;;-1.60;92275.00;;;;7399172;19;20141;-78
2024/01/17 03:28:36;;;;;;;3.37;1.87;;;;;-1.50;92276.00;;;;7399185;19;20144;-77
2024/01/17 03:31:10;;;;;;;3.47;2.30;;;;;-1.70;92278.00;;;;7399839;19;20477;-77
2024/01/17 03:33:39;;;;;;;3.53;2.23;;;;;-1.60;92272.00;;;;7398103;19;20224;-77
2024/01/17 03:36:13;;;;;;;3.07;2.10;;;;;-1.40;92268.00;;;;7400473;19;20140;-77
2024/01/17 03:38:41;;;;;;;2.33;2.03;;;;;-1.20;92248.00;;;;7401113;19;20617;-76
2024/01/17 03:41:22;;;;;;;3.53;2.37;;;;;-1.20;92255.00;;;;7399006;19;20168;-76
2024/01/17 03:43:58;;;;;;;3.03;2.00;;;;;-1.30;92254.00;;;;7399033;19;20655;-78
2024/01/17 03:46:32;;;;;;;2.77;2.00;;;;;-1.10;92247.00;;;;7397283;19;20497;-78
2024/01/17 03:49:06;;;;;;;3.27;2.30;;;;;-1.10;92245.00;;;;7399801;19;20520;-78
2024/01/17 03:51:41;;;;;;;3.80;2.40;;;;;-1.10;92238.00;;;;7398467;19;20474;-78
2024/01/17 03:54:08;;;;;;;4.70;2.30;;;;;-1.00;92225.00;;;;7399074;19;20148;-79
2024/01/17 03:56:42;;;;;;;4.30;2.40;;;;;-0.90;92226.00;;;;7399286;19;20478;-78
2024/01/17 03:59:16;;;;;;;4.10;1.93;;;;;-0.80;92219.00;;;;7399957;19;20478;-77
2024/01/17 04:01:51;;;;;;;3.87;2.70;;;;;-0.70;92203.00;;;;7398497;19;20133;-78
2024/01/17 04:04:26;;;;;;;2.93;2.13;;;;;-0.80;92207.00;;;;7396214;19;20148;-78
2024/01/17 04:06:55;;;;;;;4.10;2.53;;;;;-0.50;92198.00;;;;7398958;19;20144;-78
2024/01/17 04:09:29;;;;;;;4.47;2.70;;;;;-0.70;92207.00;;;;7400663;19;20132;-77
2024/01/17 04:11:57;;;;;;;3.87;2.60;;;;;-0.60;92192.00;;;;7407240;19;20202;-78
2024/01/17 04:14:32;;;;;;;4.37;2.80;;;;;-0.60;92187.00;;;;7404889;19;20153;-79
2024/01/17 04:17:00;;;;;;;3.47;2.50;;;;;-0.50;92172.00;;;;7407693;19;20153;-78
2024/01/17 04:19:29;;;;;;;4.83;3.03;;;;;-0.70;92175.00;;;;7406343;19;20164;-79
2024/01/17 04:22:03;;;;;;;3.97;2.73;;;;;-0.50;92176.00;;;;7403686;19;20152;-78
2024/01/17 04:24:31;;;;;;;5.13;2.87;;;;;-0.40;92176.00;;;;7404720;19;20173;-76
2024/01/17 04:27:06;;;;;;;3.87;2.73;;;;;-0.50;92181.00;;;;7404507;19;20156;-77
2024/01/17 04:29:35;;;;;;;4.27;3.10;;;;;-0.30;92172.00;;;;7405061;19;20148;-76
2024/01/17 04:32:10;;;;;;;5.07;3.10;;;;;0.00;92169.00;;;;7406182;19;20141;-76
2024/01/17 04:34:44;;;;;;;6.03;3.60;;;;;-0.30;92160.00;;;;7404963;19;20145;-78
2024/01/17 04:37:18;;;;;;;4.20;3.17;;;;;-0.20;92159.00;;;;7405617;19;20526;-76
2024/01/17 04:39:45;;;;;;;4.17;2.90;;;;;-0.30;92151.00;;;;7404539;19;20133;-77
2024/01/17 04:42:26;;;;;;;6.30;4.27;;;;;-0.70;92147.00;;;;7402344;19;20160;-76
2024/01/17 04:44:54;;;;;;;10.10;6.67;;;;;-0.70;92132.00;;;;7403332;19;20605;-76
2024/01/17 04:47:29;;;;;;;17.83;10.40;;;;;-0.50;92135.00;;;;7404235;19;20145;-80
2024/01/17 04:49:58;;;;;;;18.33;11.50;;;;;-0.60;92114.00;;;;7405138;19;20601;-80
2024/01/17 04:52:26;;;;;;;15.90;10.73;;;;;-0.60;92114.00;;;;7404945;19;20188;-79
2024/01/17 04:55:00;;;;;;;20.43;12.23;;;;;-0.70;92110.00;;;;7405529;19;20605;-80
2024/01/17 04:57:28;;;;;;;21.07;13.47;;;;;-0.70;92106.00;;;;7403068;19;20152;-79
2024/01/17 05:00:05;;;;;;;23.20;13.23;;;;;-0.70;92106.00;;;;7404644;19;20627;-79
2024/01/17 05:02:33;;;;;;;22.00;13.63;;;;;-0.70;92104.00;;;;7401612;19;20146;-80
2024/01/17 05:05:01;;;;;;;23.97;14.17;;;;;-0.60;92096.00;;;;7402965;19;20645;-81
2024/01/17 05:07:36;;;;;;;23.83;13.93;;;;;-0.70;92092.00;;;;7405104;19;20144;-80
2024/01/17 05:10:05;;;;;;;21.20;13.90;;;;;-0.80;92086.00;;;;7404802;19;20145;-80
2024/01/17 05:12:38;;;;;;;21.80;12.50;;;;;-0.90;92079.00;;;;7404026;19;20192;-79
2024/01/17 05:15:13;;;;;;;24.97;13.37;;;;;-0.80;92080.00;;;;7402895;19;20608;-79
2024/01/17 05:17:41;;;;;;;27.00;14.67;;;;;-0.90;92069.00;;;;7404061;19;20156;-78
2024/01/17 05:20:17;;;;;;;27.00;15.63;;;;;-1.00;92068.00;;;;7403074;19;20140;-80
2024/01/17 05:22:52;;;;;;;29.93;15.60;;;;;-1.00;92064.00;;;;7400894;19;20648;-79
2024/01/17 05:25:29;;;;;;;34.30;18.77;;;;;-1.00;92072.00;;;;7405411;19;20155;-79
2024/01/17 05:28:04;;;;;;;38.27;20.47;;;;;-1.00;92056.00;;;;7403890;19;20142;-80
2024/01/17 05:30:40;;;;;;;37.03;18.50;;;;;-1.10;92048.00;;;;7404452;19;20149;-80
2024/01/17 05:33:09;;;;;;;36.80;20.37;;;;;-1.10;92044.00;;;;7401780;19;20587;-79
2024/01/17 05:35:44;;;;;;;34.10;19.50;;;;;-1.00;92026.00;;;;7402362;19;20196;-80
2024/01/17 05:38:29;;;;;;;32.43;18.77;;;;;-0.90;92022.00;;;;7399233;19;20232;-78
2024/01/17 05:41:10;;;;;;;37.73;20.33;;;;;-0.70;92006.00;;;;7401592;19;20538;-78
2024/01/17 05:43:45;;;;;;;35.50;19.60;;;;;-0.70;92009.00;;;;7402364;19;20140;-79
2024/01/17 05:46:18;;;;;;;34.83;19.80;;;;;-0.90;92005.00;;;;7403838;19;20144;-79
2024/01/17 05:48:52;;;;;;;36.03;19.40;;;;;-0.90;92001.00;;;;7402292;19;20145;-79
2024/01/17 05:51:27;;;;;;;33.70;19.37;;;;;-0.90;91999.00;;;;7401968;19;20834;-78
2024/01/17 05:54:00;;;;;;;42.97;21.87;;;;;-0.90;92000.00;;;;7401732;19;20604;-79
2024/01/17 05:56:28;;;;;;;44.67;22.73;;;;;-0.90;91997.00;;;;7401535;19;20158;-79
2024/01/17 05:59:03;;;;;;;40.93;22.17;;;;;-0.90;91985.00;;;;7401837;19;20151;-76
2024/01/17 06:01:30;;;;;;;41.63;23.30;;;;;-1.00;91979.00;;;;7402291;19;20145;-77
2024/01/17 06:04:07;;;;;;;40.37;21.13;;;;;-0.90;91977.00;;;;7402505;19;20140;-78
2024/01/17 06:06:35;;;;;;;41.73;22.90;;;;;-0.90;91967.00;;;;7393799;19;20144;-78
2024/01/17 06:09:11;;;;;;;42.60;22.30;;;;;-0.90;91968.00;;;;7392619;19;20152;-77
2024/01/17 06:11:39;;;;;;;40.63;22.17;;;;;-1.10;91962.00;;;;7392267;19;20155;-75
2024/01/17 06:14:12;;;;;;;38.30;20.77;;;;;-1.00;91948.00;;;;7392381;19;20129;-76
2024/01/17 06:16:44;;;;;;;36.73;21.33;;;;;-1.00;91946.00;;;;7393636;19;20133;-76
2024/01/17 06:19:23;;;;;;;38.17;20.73;;;;;-1.00;91938.00;;;;7394000;19;20132;-76
2024/01/17 06:21:53;;;;;;;37.43;21.20;;;;;-0.90;91945.00;;;;7392636;19;20152;-77
2024/01/17 06:24:27;;;;;;;37.97;20.77;;;;;-0.80;91927.00;;;;7392397;19;20485;-77
2024/01/17 06:26:58;;;;;;;42.83;22.03;;;;;-0.70;91920.00;;;;7392298;19;20152;-76
2024/01/17 06:29:35;;;;;;;39.60;21.50;;;;;-0.90;91919.00;;;;7392928;19;20144;-76
2024/01/17 06:32:03;;;;;;;41.07;21.73;;;;;-0.80;91930.00;;;;7387504;19;20147;-76
2024/01/17 06:34:31;;;;;;;41.33;21.77;;;;;-1.00;91919.00;;;;7392456;19;20672;-79
2024/01/17 06:37:06;;;;;;;40.87;22.43;;;;;-0.90;91922.00;;;;7391037;19;20597;-76
2024/01/17 06:39:41;;;;;;;43.17;22.13;;;;;-0.90;91915.00;;;;7393148;19;20541;-77
2024/01/17 06:42:23;;;;;;;42.93;22.13;;;;;-0.90;91907.00;;;;7391129;19;20778;-77
2024/01/17 06:44:57;;;;;;;44.07;22.37;;;;;-0.80;91915.00;;;;7393639;19;20544;-76
2024/01/17 06:47:31;;;;;;;45.27;22.83;;;;;-0.80;91895.00;;;;7393623;19;20171;-76
2024/01/17 06:50:06;;;;;;;44.63;22.90;;;;;-0.70;91905.00;;;;7390156;19;20490;-77
2024/01/17 06:52:34;;;;;;;45.17;22.07;;;;;-0.80;91892.00;;;;7393682;19;20148;-76
2024/01/17 06:55:09;;;;;;;46.63;23.63;;;;;-0.70;91890.00;;;;7390279;19;20180;-77
2024/01/17 06:57:45;;;;;;;44.67;23.53;;;;;-0.70;91869.00;;;;7392149;19;20144;-77
2024/01/17 07:00:20;;;;;;;44.27;21.60;;;;;-0.80;91873.00;;;;7390316;19;20163;-78
2024/01/17 07:02:48;;;;;;;48.83;23.40;;;;;-0.80;91875.00;;;;7393032;19;20143;-76
2024/01/17 07:05:17;;;;;;;43.13;22.30;;;;;-0.60;91882.00;;;;7392165;19;20157;-77
2024/01/17 07:07:51;;;;;;;54.00;28.23;;;;;-0.40;91880.00;;;;7390375;19;20168;-76
2024/01/17 07:10:19;;;;;;;45.97;24.97;;;;;-0.20;91862.00;;;;7392366;19;20172;-76
2024/01/17 07:12:53;;;;;;;46.63;23.10;;;;;-0.30;91870.00;;;;7390257;19;20168;-78
2024/01/17 07:15:21;;;;;;;43.83;23.17;;;;;-0.30;91854.00;;;;7390210;19;20132;-76
2024/01/17 07:17:56;;;;;;;48.53;24.10;;;;;-0.10;91854.00;;;;7390357;19;20601;-75
2024/01/17 07:20:30;;;;;;;45.13;23.03;;;;;-0.20;91852.00;;;;7391582;19;20140;-75
2024/01/17 07:22:59;;;;;;;45.37;22.97;;;;;-0.10;91846.00;;;;7393080;19;20196;-76
2024/01/17 07:25:27;;;;;;;45.70;22.30;;;;;-0.10;91853.00;;;;7389483;19;20624;-81
2024/01/17 07:28:08;;;;;;;50.07;24.43;;;;;0.10;91861.00;;;;7391234;19;20525;-77
2024/01/17 07:30:36;;;;;;;46.27;22.47;;;;;0.00;91849.00;;;;7389329;19;20238;-76
2024/01/17 07:33:11;;;;;;;44.30;21.60;;;;;0.10;91852.00;;;;7389333;19;20164;-76
2024/01/17 07:35:39;;;;;;;42.63;21.90;;;;;0.10;91846.00;;;;7391769;19;20141;-76
2024/01/17 07:38:07;;;;;;;47.47;23.67;;;;;0.30;91841.00;;;;7392553;19;20245;-76
2024/01/17 07:40:49;;;;;;;48.77;26.07;;;;;0.40;91845.00;;;;7392439;19;20627;-76
2024/01/17 07:43:23;;;;;;;46.33;22.67;;;;;0.30;91839.00;;;;7392683;19;20655;-80
2024/01/17 07:45:58;;;;;;;43.77;22.27;;;;;0.30;91832.00;;;;7396900;19;20152;-79
2024/01/17 07:48:26;;;;;;;57.73;30.63;;;;;0.40;91835.00;;;;7395114;19;20521;-77
2024/01/17 07:51:02;;;;;;;43.70;21.60;;;;;0.50;91821.00;;;;7396582;19;20496;-77
2024/01/17 07:53:37;;;;;;;35.60;18.23;;;;;0.50;91826.00;;;;7396365;19;20145;-78
2024/01/17 07:56:13;;;;;;;46.67;23.33;;;;;0.60;91824.00;;;;7395475;19;20135;-78
2024/01/17 07:58:48;;;;;;;51.87;25.67;;;;;0.60;91819.00;;;;7397292;19;20140;-77
2024/01/17 08:01:22;;;;;;;52.07;25.57;;;;;0.60;91819.00;;;;7393883;19;20140;-77
2024/01/17 08:03:50;;;;;;;40.20;19.67;;;;;0.70;91816.00;;;;7394022;19;20483;-79
2024/01/17 08:06:25;;;;;;;37.97;19.20;;;;;0.50;91821.00;;;;7394806;19;20567;-78
2024/01/17 08:09:02;;;;;;;35.97;19.23;;;;;0.70;91815.00;;;;7396085;19;20135;-77
2024/01/17 08:11:37;;;;;;;37.40;20.40;;;;;0.70;91806.00;;;;7398719;19;20155;-78
2024/01/17 08:14:05;;;;;;;37.10;19.43;;;;;0.60;91814.00;;;;7397512;19;20153;-78
2024/01/17 08:16:40;;;;;;;37.00;19.47;;;;;0.60;91809.00;;;;7396866;19;20218;-79
2024/01/17 08:19:08;;;;;;;40.23;21.37;;;;;0.60;91805.00;;;;7398491;19;20269;-79
2024/01/17 08:21:48;;;;;;;30.93;16.63;;;;;0.60;91794.00;;;;7397700;19;20160;-76
2024/01/17 08:24:22;;;;;;;32.23;16.63;;;;;0.70;91787.00;;;;7397997;19;20817;-77
2024/01/17 08:26:57;;;;;;;39.37;19.33;;;;;0.60;91797.00;;;;7396316;19;20617;-77
2024/01/17 08:29:26;;;;;;;29.00;16.00;;;;;0.70;91783.00;;;;7399792;19;20141;-77
2024/01/17 08:31:55;;;;;;;33.47;18.07;;;;;0.80;91775.00;;;;7401384;19;20145;-79
2024/01/17 08:34:30;;;;;;;36.67;19.20;;;;;0.60;91768.00;;;;7401722;19;20136;-78
2024/01/17 08:37:00;;;;;;;24.17;14.20;;;;;0.70;91763.00;;;;7401118;19;20168;-79
2024/01/17 08:39:35;;;;;;;26.63;14.77;;;;;0.90;91761.00;;;;7403210;19;20125;-78
2024/01/17 08:42:10;;;;;;;28.30;17.03;;;;;0.90;91757.00;;;;7401807;19;20169;-78
2024/01/17 08:44:46;;;;;;;19.67;12.33;;;;;1.10;91745.00;;;;7401000;19;20168;-78
2024/01/17 08:47:14;;;;;;;19.63;12.27;;;;;1.00;91748.00;;;;7400558;19;20148;-78
2024/01/17 08:49:49;;;;;;;20.67;12.53;;;;;0.80;91731.00;;;;7397891;19;20160;-77
2024/01/17 08:52:24;;;;;;;25.47;13.07;;;;;0.90;91737.00;;;;7399735;19;20163;-78
2024/01/17 08:54:55;;;;;;;19.30;12.10;;;;;0.90;91735.00;;;;7395882;19;20550;-78
2024/01/17 08:57:30;;;;;;;21.57;13.53;;;;;1.00;91731.00;;;;7398065;19;20135;-80
2024/01/17 08:59:58;;;;;;;21.07;13.53;;;;;0.90;91728.00;;;;7398742;19;20461;-78
2024/01/17 09:02:26;;;;;;;18.80;11.83;;;;;0.90;91731.00;;;;7397177;19;20613;-77
2024/01/17 09:05:04;;;;;;;21.23;11.90;;;;;1.00;91720.00;;;;7397717;19;20141;-78
2024/01/17 09:07:43;;;;;;;15.93;11.63;;;;;1.00;91719.00;;;;7398108;19;20152;-77
2024/01/17 09:10:17;;;;;;;18.17;11.47;;;;;1.10;91720.00;;;;7400573;19;20149;-79
2024/01/17 09:12:47;;;;;;;23.23;13.93;;;;;1.20;91723.00;;;;7395806;19;20158;-77
2024/01/17 09:15:19;;;;;;;32.87;18.50;;;;;1.20;91704.00;;;;7395817;19;20152;-79
2024/01/17 09:17:53;;;;;;;21.90;12.20;;;;;1.30;91702.00;;;;7392990;19;20165;-77
2024/01/17 09:20:28;;;;;;;15.80;10.63;;;;;1.20;91698.00;;;;7393237;19;20203;-77
2024/01/17 09:23:04;;;;;;;26.77;16.67;;;;;1.20;91705.00;;;;7395059;19;20144;-78
2024/01/17 09:25:39;;;;;;;15.90;10.37;;;;;1.30;91696.00;;;;7395172;19;20148;-76
2024/01/17 09:28:14;;;;;;;19.83;12.07;;;;;1.30;91697.00;;;;7396480;19;20202;-77
2024/01/17 09:30:49;;;;;;;13.00;9.10;;;;;1.30;91676.00;;;;7396730;19;20152;-77
2024/01/17 09:33:22;;;;;;;13.27;8.27;;;;;1.40;91681.00;;;;7396683;19;20149;-76
2024/01/17 09:35:57;;;;;;;13.10;8.33;;;;;1.40;91677.00;;;;7394264;19;20155;-81
2024/01/17 09:38:31;;;;;;;10.97;7.10;;;;;1.30;91668.00;;;;7395776;19;20137;-78
2024/01/17 09:41:07;;;;;;;11.17;7.30;;;;;1.10;91669.00;;;;7394362;19;20167;-78
2024/01/17 09:43:49;;;;;;;11.30;7.73;;;;;1.10;91659.00;;;;7394450;19;20243;-78
2024/01/17 09:46:24;;;;;;;10.03;7.60;;;;;1.20;91662.00;;;;7394697;19;20172;-78
2024/01/17 09:48:58;;;;;;;11.00;7.57;;;;;1.40;91657.00;;;;7392074;19;20148;-76
2024/01/17 09:51:32;;;;;;;9.03;7.40;;;;;1.30;91648.00;;;;7393325;19;20153;-76
2024/01/17 09:54:07;;;;;;;9.50;7.13;;;;;1.30;91645.00;;;;7394451;19;20151;-77
2024/01/17 09:56:42;;;;;;;9.10;6.27;;;;;1.40;91645.00;;;;7392606;19;20145;-77
2024/01/17 09:59:21;;;;;;;8.67;6.20;;;;;1.40;91640.00;;;;7394025;19;20200;-77
2024/01/17 10:01:49;;;;;;;6.97;5.77;;;;;1.40;91632.00;;;;7393771;19;20150;-77
2024/01/17 10:04:24;;;;;;;9.37;6.20;;;;;1.40;91631.00;;;;7393307;19;20136;-76
2024/01/17 10:06:55;;;;;;;8.20;5.73;;;;;1.40;91633.00;;;;7393488;19;20505;-78
2024/01/17 10:09:30;;;;;;;7.27;5.83;;;;;1.40;91621.00;;;;7394250;19;20724;-78
2024/01/17 10:11:59;;;;;;;7.53;5.47;;;;;1.30;91602.00;;;;7394452;19;20159;-79
2024/01/17 10:14:33;;;;;;;10.80;7.03;;;;;1.50;91591.00;;;;7393020;19;20164;-76
2024/01/17 10:17:02;;;;;;;10.00;6.47;;;;;1.50;91597.00;;;;7393193;19;20160;-77
2024/01/17 10:19:36;;;;;;;7.27;5.30;;;;;1.40;91590.00;;;;7392844;19;20140;-76
2024/01/17 10:22:09;;;;;;;7.07;5.60;;;;;1.40;91580.00;;;;7394668;19;20140;-79
2024/01/17 10:24:43;;;;;;;6.33;4.80;;;;;1.50;91576.00;;;;7393741;19;20158;-78
2024/01/17 10:27:18;;;;;;;7.63;4.57;;;;;1.50;91564.00;;;;7395002;19;20147;-80
2024/01/17 10:29:51;;;;;;;6.10;4.77;;;;;1.50;91547.00;;;;7395695;19;20145;-77
2024/01/17 10:32:20;;;;;;;5.63;4.63;;;;;1.40;91534.00;;;;7393297;19;20149;-77
2024/01/17 10:34:58;;;;;;;4.40;3.93;;;;;1.50;91541.00;;;;7392913;19;20157;-77
2024/01/17 10:37:34;;;;;;;4.60;3.87;;;;;1.40;91528.00;;;;7392869;19;20595;-77
2024/01/17 10:40:11;;;;;;;4.87;3.80;;;;;1.50;91523.00;;;;7393729;19;20155;-77
2024/01/17 10:42:46;;;;;;;5.73;3.70;;;;;1.50;91520.00;;;;7394073;19;20184;-78
2024/01/17 10:45:25;;;;;;;3.93;3.23;;;;;1.50;91517.00;;;;7392251;19;20178;-78
2024/01/17 10:48:00;;;;;;;5.73;3.73;;;;;1.50;91516.00;;;;7391363;19;20156;-76
2024/01/17 10:50:35;;;;;;;3.83;3.00;;;;;1.60;91503.00;;;;7392640;19;20161;-76
2024/01/17 10:53:11;;;;;;;5.60;3.53;;;;;1.50;91503.00;;;;7392956;19;20651;-78
2024/01/17 10:55:39;;;;;;;3.10;2.70;;;;;1.60;91506.00;;;;7391925;19;20168;-78
2024/01/17 10:58:15;;;;;;;3.37;2.80;;;;;1.80;91496.00;;;;7392885;19;20136;-78
2024/01/17 11:00:51;;;;;;;2.83;2.53;;;;;1.70;91493.00;;;;7391828;19;20493;-81
2024/01/17 11:03:29;;;;;;;3.23;2.70;;;;;1.60;91490.00;;;;7393372;19;20287;-79
2024/01/17 11:06:05;;;;;;;3.40;2.43;;;;;1.70;91478.00;;;;7392556;19;20152;-80
2024/01/17 11:08:42;;;;;;;2.60;2.40;;;;;1.70;91480.00;;;;7390767;19;20152;-81
2024/01/17 11:11:12;;;;;;;3.50;2.70;;;;;1.70;91473.00;;;;7392042;19;20208;-79
2024/01/17 11:13:49;;;;;;;2.60;2.30;;;;;1.70;91465.00;;;;7393060;19;20525;-77
2024/01/17 11:16:24;;;;;;;2.87;2.33;;;;;1.90;91470.00;;;;7392768;19;20163;-78
2024/01/17 11:18:56;;;;;;;2.13;1.90;;;;;1.80;91461.00;;;;7392067;19;20141;-78
2024/01/17 11:21:32;;;;;;;2.73;2.20;;;;;1.70;91459.00;;;;7392057;19;20144;-78
2024/01/17 11:24:24;;;;;;;2.07;1.87;;;;;1.80;91454.00;;;;7391819;19;20145;-78
2024/01/17 11:27:22;;;;;;;2.90;2.43;;;;;2.00;91445.00;;;;7393702;19;20149;-78
2024/01/17 11:30:03;;;;;;;2.17;1.97;;;;;2.50;91427.00;;;;7391917;19;20173;-78
2024/01/17 11:33:06;;;;;;;2.33;2.00;;;;;2.40;91420.00;;;;7390081;19;20141;-79
2024/01/17 11:35:49;;;;;;;2.13;1.90;;;;;3.00;91403.00;;;;7391215;19;20144;-78
2024/01/17 11:38:23;;;;;;;3.00;2.10;;;;;2.80;91412.00;;;;7392229;19;20146;-77
2024/01/17 11:41:10;;;;;;;1.93;1.77;;;;;3.00;91421.00;;;;7394040;19;20137;-78
2024/01/17 11:43:52;;;;;;;2.27;1.73;;;;;2.50;91405.00;;;;7391330;19;20180;-77
2024/01/17 11:46:26;;;;;;;2.90;1.90;;;;;2.70;91400.00;;;;7392075;19;20270;-78
2024/01/17 11:48:54;;;;;;;2.10;1.90;;;;;2.60;91406.00;;;;7391298;19;20137;-78
2024/01/17 11:51:28;;;;;;;1.50;1.40;;;;;2.60;91393.00;;;;7391189;19;20148;-80
2024/01/17 11:53:56;;;;;;;1.80;1.70;;;;;2.80;91397.00;;;;7391493;19;20500;-77
2024/01/17 11:56:28;;;;;;;1.97;1.77;;;;;2.80;91396.00;;;;7390048;19;20147;-79
2024/01/17 11:59:09;;;;;;;2.17;1.80;;;;;3.00;91385.00;;;;7391021;19;20159;-76
2024/01/17 12:01:36;;;;;;;1.50;1.30;;;;;3.10;91382.00;;;;7390952;19;20144;-77
2024/01/17 12:04:17;;;;;;;2.00;1.60;;;;;3.00;91377.00;;;;7389425;19;20144;-77
2024/01/17 12:06:52;;;;;;;3.00;1.83;;;;;2.90;91364.00;;;;7389333;19;20141;-77
2024/01/17 12:09:27;;;;;;;21.17;3.40;;;;;2.60;91359.00;;;;7389828;19;20489;-77
2024/01/17 12:12:02;;;;;;;8.57;2.00;;;;;2.40;91350.00;;;;7389561;19;20152;-77
2024/01/17 12:14:35;;;;;;;6.93;2.13;;;;;2.40;91346.00;;;;7390044;19;20136;-80
2024/01/17 12:17:12;;;;;;;35.70;15.03;;;;;2.60;91341.00;;;;7390229;19;20254;-79
2024/01/17 12:19:47;;;;;;;17.60;2.90;;;;;2.50;91323.00;;;;7390574;19;20165;-76
2024/01/17 12:22:22;;;;;;;3.60;2.20;;;;;2.80;91333.00;;;;7388634;19;20180;-76
2024/01/17 12:24:50;;;;;;;17.83;3.37;;;;;2.50;91341.00;;;;7388599;19;20481;-77
2024/01/17 12:27:24;;;;;;;3.77;2.10;;;;;2.60;91331.00;;;;7388735;19;20148;-77
2024/01/17 12:29:54;;;;;;;3.73;1.77;;;;;2.70;91327.00;;;;7391145;19;20211;-77
2024/01/17 12:32:29;;;;;;;3.13;2.30;;;;;2.80;91339.00;;;;7394642;19;20628;-77
2024/01/17 12:35:05;;;;;;;2.97;2.00;;;;;2.90;91328.00;;;;7396631;19;20171;-78
2024/01/17 12:37:39;;;;;;;2.03;1.83;;;;;2.90;91327.00;;;;7396632;19;20144;-78
2024/01/17 12:40:08;;;;;;;2.73;2.30;;;;;2.70;91312.00;;;;7396672;19;20173;-78
2024/01/17 12:42:53;;;;;;;16.77;3.67;;;;;2.70;91305.00;;;;7398099;19;20764;-79
2024/01/17 12:45:27;;;;;;;238.67;15.37;;;;;3.00;91302.00;;;;7395613;19;20145;-78